Time;durP1;ratioP1;P1;durP2;ratioP2;P2;SDS_P1;SDS_P2;PMS_P1;PMS_P2;Temp;Humidity;BMP_temperature;BMP_pressure;BME280_temperature;BME280_humidity;BME280_pressure;Samples;Min_cycle;Max_cycle;Signal;HPM_P1;HPM_P2
2023/06/29 00:01:45;;;;;;;3.92;2.42;;;16.40;98.80;;;16.27;100.00;97311.88;5028365;28;20059;-38
2023/06/29 00:04:11;;;;;;;3.10;2.10;;;16.40;98.90;;;16.29;100.00;97325.09;5022061;28;20041;-38
2023/06/29 00:06:37;;;;;;;4.47;2.30;;;16.30;99.00;;;16.27;100.00;97311.03;5025019;28;20131;-38
2023/06/29 00:09:06;;;;;;;3.67;2.60;;;16.30;98.90;;;16.16;100.00;97298.38;5027385;28;20483;-38
2023/06/29 00:11:33;;;;;;;3.20;2.38;;;16.30;99.10;;;16.23;100.00;97305.88;5029493;28;20158;-38
2023/06/29 00:13:58;;;;;;;3.33;2.47;;;16.30;99.40;;;16.26;100.00;97319.94;5028802;28;20481;-38
2023/06/29 00:16:24;;;;;;;3.80;2.33;;;16.30;99.60;;;16.23;100.00;97316.53;5028695;28;20021;-37
2023/06/29 00:18:50;;;;;;;3.67;2.42;;;16.30;99.40;;;16.22;100.00;97311.28;5031311;28;20025;-38
2023/06/29 00:21:16;;;;;;;3.17;2.30;;;16.30;99.50;;;16.18;100.00;97313.28;5030547;28;20360;-37
2023/06/29 00:23:42;;;;;;;3.00;2.35;;;16.30;99.60;;;16.16;100.00;97303.69;5034517;28;20467;-37
2023/06/29 00:26:08;;;;;;;3.75;2.60;;;16.30;99.60;;;16.14;100.00;97311.78;5031538;28;20040;-38
2023/06/29 00:28:33;;;;;;;3.72;2.47;;;16.20;99.60;;;16.12;100.00;97318.16;5032537;28;20062;-39
2023/06/29 00:30:59;;;;;;;3.83;2.53;;;16.20;99.90;;;16.09;100.00;97305.03;5031398;28;20111;-38
2023/06/29 00:33:25;;;;;;;4.28;2.70;;;16.20;99.90;;;16.06;100.00;97303.41;5033318;28;20072;-38
2023/06/29 00:35:51;;;;;;;5.18;2.50;;;16.20;99.90;;;16.01;100.00;97309.00;5033433;28;20037;-38
2023/06/29 00:38:16;;;;;;;2.97;2.33;;;16.10;99.90;;;16.02;100.00;97301.88;5032564;28;20386;-37
2023/06/29 00:40:42;;;;;;;3.47;2.50;;;16.10;99.90;;;15.95;100.00;97289.88;5035010;28;20063;-38
2023/06/29 00:43:09;;;;;;;3.90;2.22;;;16.10;99.90;;;15.98;100.00;97305.66;5033329;28;20045;-38
2023/06/29 00:45:35;;;;;;;3.60;2.30;;;16.10;99.90;;;15.94;100.00;97296.16;5022723;28;20505;-38
2023/06/29 00:48:01;;;;;;;4.30;2.58;;;16.00;99.90;;;15.92;100.00;97292.75;5029680;28;20033;-37
2023/06/29 00:50:26;;;;;;;4.68;2.63;;;16.00;99.90;;;15.89;100.00;97292.94;5013784;28;20041;-38
2023/06/29 00:52:53;;;;;;;3.72;2.55;;;16.00;99.90;;;15.84;100.00;97288.75;5033982;28;20037;-38
2023/06/29 00:55:18;;;;;;;3.33;2.35;;;15.90;99.90;;;15.79;100.00;97285.50;5028722;28;20045;-37
2023/06/29 00:57:45;;;;;;;2.83;2.30;;;15.90;99.90;;;15.77;100.00;97282.09;5030695;28;20414;-37
2023/06/29 01:00:11;;;;;;;4.50;2.33;;;15.90;99.90;;;15.76;100.00;97284.84;5029884;28;20108;-38
2023/06/29 01:02:40;;;;;;;4.85;2.53;;;15.80;99.90;;;15.74;100.00;97274.28;5033496;28;20569;-37
2023/06/29 01:05:09;;;;;;;4.38;2.50;;;15.80;99.90;;;15.71;100.00;97279.75;5027178;28;20521;-38
2023/06/29 01:07:49;;;;;;;3.33;2.33;;;15.80;99.90;;;15.69;100.00;97279.00;5029481;28;20482;-37
2023/06/29 01:10:19;;;;;;;6.85;2.78;;;15.80;99.90;;;15.68;100.00;97279.06;5012000;28;20041;-38
2023/06/29 01:12:47;;;;;;;4.00;2.42;;;15.80;99.90;;;15.65;100.00;97272.16;5032408;28;20449;-37
2023/06/29 01:15:13;;;;;;;3.38;2.63;;;15.70;99.90;;;15.64;100.00;97270.44;5014837;28;20036;-38
2023/06/29 01:17:40;;;;;;;4.32;2.65;;;15.70;99.90;;;15.60;100.00;97269.75;5033253;28;20033;-38
2023/06/29 01:20:11;;;;;;;4.15;2.50;;;15.70;99.90;;;15.58;100.00;97270.81;5028404;28;20029;-37
2023/06/29 01:23:08;;;;;;;4.80;2.70;;;15.70;99.90;;;15.43;100.00;97252.16;5014548;28;20041;-37
2023/06/29 01:25:36;;;;;;;5.85;2.60;;;15.60;99.90;;;15.49;100.00;97274.84;5026412;28;21138;-38
2023/06/29 01:28:06;;;;;;;3.72;2.58;;;15.60;99.90;;;15.42;100.00;97266.38;5013787;28;20036;-38
2023/06/29 01:30:32;;;;;;;3.47;2.45;;;15.60;99.90;;;15.46;100.00;97261.75;5032721;28;20033;-38
2023/06/29 01:32:57;;;;;;;3.67;2.72;;;15.60;99.90;;;15.44;100.00;97271.59;5033804;28;20517;-38
2023/06/29 01:35:23;;;;;;;3.65;2.88;;;15.50;99.90;;;15.39;100.00;97263.91;5030016;28;20037;-38
2023/06/29 01:38:04;;;;;;;3.92;3.13;;;15.50;99.90;;;15.37;100.00;97263.13;5051771;22;20489;-37
2023/06/29 01:40:32;;;;;;;3.88;2.65;;;15.50;99.90;;;15.34;100.00;97265.13;5014454;28;20046;-37
2023/06/29 01:42:58;;;;;;;3.92;2.97;;;15.50;99.90;;;15.35;100.00;97259.72;5015347;28;20490;-37
2023/06/29 01:45:25;;;;;;;4.65;2.70;;;15.50;99.90;;;15.35;100.00;97259.72;5009049;28;20068;-37
2023/06/29 01:47:53;;;;;;;4.05;2.95;;;15.50;99.90;;;15.32;100.00;97259.88;5009357;28;20119;-37
2023/06/29 01:50:19;;;;;;;5.22;2.92;;;15.40;99.90;;;15.32;100.00;97261.69;5011311;28;20047;-37
2023/06/29 01:52:44;;;;;;;6.18;3.30;;;15.40;99.90;;;15.30;100.00;97256.47;5027017;28;20083;-37
2023/06/29 01:55:11;;;;;;;3.90;3.05;;;15.40;99.90;;;15.28;100.00;97255.69;5018984;28;20037;-37
2023/06/29 01:57:37;;;;;;;4.38;2.88;;;15.40;99.90;;;15.25;100.00;97259.41;5016942;28;20041;-37
2023/06/29 02:00:03;;;;;;;3.42;2.58;;;15.40;99.90;;;15.24;100.00;97262.16;5023695;28;20029;-37
2023/06/29 02:02:30;;;;;;;3.83;2.58;;;15.30;99.90;;;15.20;100.00;97255.28;5021082;28;20136;-37
2023/06/29 02:04:56;;;;;;;7.05;2.70;;;15.30;99.90;;;15.17;100.00;97250.16;5025957;28;20067;-37
2023/06/29 02:07:22;;;;;;;5.35;3.00;;;15.30;99.90;;;15.12;100.00;97255.72;5021625;28;20037;-37
2023/06/29 02:09:47;;;;;;;4.38;2.70;;;15.20;99.90;;;15.07;100.00;97253.34;5026686;28;20072;-37
2023/06/29 02:12:13;;;;;;;4.10;3.03;;;15.20;99.90;;;15.07;100.00;97250.69;4999765;28;20033;-38
2023/06/29 02:14:39;;;;;;;3.47;2.90;;;15.20;99.90;;;15.06;100.00;97250.78;5020669;28;20120;-37
2023/06/29 02:17:04;;;;;;;4.00;2.90;;;15.20;99.90;;;15.02;100.00;97246.56;5017196;28;20141;-37
2023/06/29 02:19:30;;;;;;;3.90;2.80;;;15.20;99.90;;;14.99;100.00;97238.81;5026705;28;20036;-37
2023/06/29 02:21:56;;;;;;;4.72;2.75;;;15.10;99.90;;;14.97;100.00;97240.69;5024305;28;20029;-37
2023/06/29 02:24:23;;;;;;;4.63;3.28;;;15.10;99.90;;;14.94;100.00;97236.41;5021770;28;20071;-38
2023/06/29 02:26:48;;;;;;;5.55;2.90;;;15.00;99.90;;;14.87;100.00;97232.38;5022645;28;20109;-37
2023/06/29 02:29:14;;;;;;;3.60;2.70;;;15.00;99.90;;;14.89;100.00;97236.69;5019244;28;20037;-37
2023/06/29 02:31:40;;;;;;;5.53;3.15;;;15.00;99.90;;;14.89;100.00;97238.44;5021379;28;20485;-37
2023/06/29 02:34:06;;;;;;;5.43;3.17;;;15.00;99.90;;;14.89;100.00;97241.09;5022657;28;20060;-37
2023/06/29 02:36:31;;;;;;;3.85;2.65;;;15.00;99.90;;;14.87;100.00;97235.03;5022601;28;20040;-37
2023/06/29 02:38:57;;;;;;;4.75;2.80;;;15.00;99.90;;;14.86;100.00;97228.88;5024696;28;20114;-38
2023/06/29 02:41:23;;;;;;;5.15;3.30;;;15.00;99.90;;;14.83;100.00;97231.69;5021332;28;20506;-37
2023/06/29 02:43:48;;;;;;;4.45;2.95;;;15.00;99.90;;;14.83;100.00;97230.84;5021374;28;20017;-38
2023/06/29 02:46:15;;;;;;;5.90;3.40;;;14.90;99.90;;;14.80;100.00;97220.41;5019164;28;20453;-37
2023/06/29 02:48:41;;;;;;;5.22;3.60;;;14.90;99.90;;;14.78;100.00;97223.13;5026092;28;20032;-37
2023/06/29 02:51:07;;;;;;;6.55;3.42;;;14.90;99.90;;;14.76;100.00;97222.38;5024267;28;20033;-37
2023/06/29 02:53:32;;;;;;;4.05;3.20;;;14.90;99.90;;;14.76;100.00;97225.03;5024465;28;20021;-37
2023/06/29 02:55:58;;;;;;;6.25;3.47;;;14.90;99.90;;;14.74;100.00;97226.06;5019295;28;20064;-37
2023/06/29 02:58:24;;;;;;;4.50;3.35;;;14.90;99.90;;;14.72;100.00;97223.50;5024603;28;20045;-37
2023/06/29 03:00:49;;;;;;;7.60;3.55;;;14.80;99.90;;;14.68;100.00;97212.19;5025685;28;20090;-38
2023/06/29 03:03:15;;;;;;;5.45;3.45;;;14.80;99.90;;;14.67;100.00;97220.25;5022565;28;20040;-37
2023/06/29 03:05:41;;;;;;;6.80;3.25;;;14.80;99.90;;;14.64;100.00;97213.31;5020855;28;20041;-37
2023/06/29 03:08:06;;;;;;;4.75;3.25;;;14.80;99.90;;;14.61;100.00;97218.78;5017296;28;20502;-37
2023/06/29 03:10:32;;;;;;;5.50;3.30;;;14.80;99.90;;;14.60;100.00;97224.19;5020448;28;20205;-37
2023/06/29 03:12:58;;;;;;;6.10;3.47;;;14.70;99.90;;;14.58;100.00;97224.25;5024004;28;20034;-37
2023/06/29 03:15:24;;;;;;;4.00;3.10;;;14.70;99.90;;;14.54;100.00;97219.19;5018787;28;23071;-37
2023/06/29 03:17:49;;;;;;;7.75;2.90;;;14.70;99.90;;;14.48;100.00;97210.63;5021327;28;20040;-37
2023/06/29 03:20:15;;;;;;;4.10;2.78;;;14.70;99.90;;;14.53;100.00;97215.66;5021343;28;20032;-37
2023/06/29 03:22:41;;;;;;;4.00;2.97;;;14.70;99.90;;;14.57;100.00;97219.88;5023075;28;20368;-37
2023/06/29 03:25:10;;;;;;;5.55;3.17;;;14.70;99.90;;;14.56;100.00;97215.50;5015466;28;20037;-37
2023/06/29 03:27:37;;;;;;;4.68;3.22;;;14.70;99.90;;;14.56;100.00;97218.16;5022214;28;20028;-37
2023/06/29 03:30:03;;;;;;;5.57;3.47;;;14.70;99.90;;;14.56;100.00;97219.97;5019809;28;20031;-37
2023/06/29 03:32:29;;;;;;;5.30;3.45;;;14.70;99.90;;;14.56;100.00;97212.84;5020913;28;20095;-37
2023/06/29 03:34:54;;;;;;;6.88;3.10;;;14.70;99.90;;;14.52;100.00;97206.84;5018917;28;20483;-37
2023/06/29 03:37:20;;;;;;;3.38;3.05;;;14.70;99.90;;;14.49;100.00;97206.16;5016719;28;20033;-37
2023/06/29 03:39:46;;;;;;;4.10;3.00;;;14.70;99.90;;;14.51;100.00;97214.91;5022126;28;20148;-37
2023/06/29 03:42:11;;;;;;;4.40;3.22;;;14.70;99.90;;;14.52;100.00;97217.47;5022576;28;20025;-37
2023/06/29 03:44:39;;;;;;;4.90;3.50;;;14.70;99.90;;;14.48;100.00;97218.59;5019694;28;20399;-37
2023/06/29 03:47:06;;;;;;;4.63;3.20;;;14.70;99.90;;;14.52;100.00;97227.25;5019061;28;20044;-37
2023/06/29 03:49:32;;;;;;;3.70;3.30;;;14.70;99.90;;;14.52;100.00;97224.59;5025036;28;20036;-37
2023/06/29 03:51:58;;;;;;;5.40;3.63;;;14.70;99.90;;;14.52;100.00;97214.81;5024570;28;20061;-37
2023/06/29 03:54:24;;;;;;;4.72;3.50;;;14.70;99.90;;;14.52;100.00;97212.16;5022661;28;20122;-37
2023/06/29 03:56:50;;;;;;;5.68;3.53;;;14.70;99.90;;;14.51;100.00;97221.06;5020569;28;20029;-37
2023/06/29 03:59:16;;;;;;;5.20;3.50;;;14.70;99.90;;;14.54;100.00;97204.13;5021551;28;20057;-37
2023/06/29 04:01:42;;;;;;;5.80;3.22;;;14.70;99.90;;;14.57;100.00;97216.34;5017995;28;20078;-37
2023/06/29 04:04:08;;;;;;;5.63;3.97;;;14.70;99.90;;;14.60;100.00;97213.56;5012612;28;20476;-37
2023/06/29 04:06:33;;;;;;;7.60;3.70;;;14.70;99.90;;;14.66;100.00;97214.09;5018001;28;20175;-37
2023/06/29 04:08:59;;;;;;;9.13;3.65;;;14.80;99.90;;;14.69;100.00;97211.22;5018297;28;20037;-37
2023/06/29 04:11:25;;;;;;;5.32;3.95;;;14.90;99.90;;;14.77;100.00;97207.28;5014599;28;20033;-37
2023/06/29 04:13:50;;;;;;;5.28;3.70;;;14.90;99.90;;;14.85;100.00;97207.72;5019767;28;20442;-37
2023/06/29 04:16:16;;;;;;;4.60;3.42;;;15.00;99.90;;;14.93;100.00;97207.28;5017447;28;20037;-37
2023/06/29 04:18:42;;;;;;;8.13;3.80;;;15.10;99.90;;;15.02;100.00;97202.31;5025213;28;21706;-37
2023/06/29 04:21:07;;;;;;;5.50;3.67;;;15.20;99.90;;;15.06;100.00;97190.53;5021679;28;20029;-37
2023/06/29 04:23:33;;;;;;;6.45;3.58;;;15.30;99.90;;;15.21;100.00;97204.72;5023022;28;20029;-37
2023/06/29 04:26:02;;;;;;;4.57;3.80;;;15.40;99.90;;;15.32;100.00;97205.91;5021611;28;20036;-37
2023/06/29 04:28:29;;;;;;;5.88;3.85;;;15.50;99.90;;;15.38;100.00;97203.75;5020134;28;20087;-37
2023/06/29 04:30:55;;;;;;;5.53;3.53;;;15.60;99.90;;;15.51;100.00;97209.19;5013591;28;20740;-37
2023/06/29 04:33:21;;;;;;;6.10;3.80;;;15.70;99.90;;;15.60;100.00;97208.63;5018080;28;20033;-37
2023/06/29 04:35:47;;;;;;;7.13;3.40;;;15.80;99.90;;;15.70;100.00;97208.91;5021617;28;20513;-37
2023/06/29 04:38:13;;;;;;;6.50;3.80;;;15.80;99.90;;;15.78;100.00;97208.50;5021418;28;20040;-37
2023/06/29 04:40:39;;;;;;;6.43;3.42;;;15.90;99.90;;;15.88;100.00;97209.66;5022463;28;20029;-37
2023/06/29 04:43:08;;;;;;;5.00;3.50;;;16.00;99.90;;;15.96;100.00;97203.84;5021690;28;20068;-37
2023/06/29 04:45:35;;;;;;;4.25;3.25;;;16.10;99.90;;;15.95;100.00;97189.69;5026353;28;20036;-37
2023/06/29 04:48:01;;;;;;;6.68;3.30;;;16.20;99.90;;;16.11;100.00;97205.53;5024647;28;20094;-39
2023/06/29 04:50:35;;;;;;;5.18;3.10;;;16.30;99.90;;;16.19;100.00;97205.94;5017773;28;20104;-38
2023/06/29 04:53:09;;;;;;;7.22;3.25;;;16.30;99.90;;;16.28;100.00;97207.16;5027869;28;20085;-37
2023/06/29 04:55:36;;;;;;;4.90;3.10;;;16.40;99.90;;;16.35;100.00;97202.31;5028841;28;20108;-38
2023/06/29 04:58:03;;;;;;;5.82;3.47;;;16.50;99.90;;;16.42;100.00;97199.16;5034589;28;20034;-37
2023/06/29 05:00:32;;;;;;;5.13;3.50;;;16.60;99.90;;;16.52;100.00;97201.22;5028980;28;20028;-37
2023/06/29 05:02:59;;;;;;;5.00;3.10;;;16.60;99.90;;;16.56;100.00;97203.59;5030136;28;20029;-37
2023/06/29 05:05:25;;;;;;;4.93;3.00;;;16.70;99.90;;;16.63;100.00;97201.38;5026094;28;20025;-37
2023/06/29 05:07:51;;;;;;;4.95;3.22;;;16.80;99.90;;;16.70;100.00;97196.53;5024633;28;20109;-37
2023/06/29 05:10:17;;;;;;;4.78;3.28;;;16.90;99.90;;;16.79;100.00;97201.25;5026061;28;20718;-38
2023/06/29 05:12:42;;;;;;;6.18;3.55;;;16.90;99.90;;;16.80;100.00;97189.66;5006299;28;20083;-37
2023/06/29 05:15:09;;;;;;;6.80;3.30;;;17.00;99.90;;;16.97;100.00;97196.53;5025243;28;20037;-37
2023/06/29 05:17:34;;;;;;;4.40;2.50;;;17.10;99.90;;;17.12;100.00;97198.22;5020728;28;20060;-38
2023/06/29 05:20:00;;;;;;;6.72;2.85;;;17.20;99.90;;;17.26;100.00;97199.09;5025216;28;20048;-38
2023/06/29 05:22:26;;;;;;;5.10;3.10;;;17.30;99.90;;;17.38;100.00;97208.06;5011320;28;20348;-37
2023/06/29 05:24:51;;;;;;;6.57;3.15;;;17.40;99.90;;;17.50;99.28;97202.75;5028871;28;20025;-38
2023/06/29 05:27:17;;;;;;;5.00;2.85;;;17.50;99.90;;;17.68;97.68;97199.81;5014209;28;20646;-38
2023/06/29 05:30:06;;;;;;;4.75;2.63;;;17.70;99.90;;;17.99;94.25;97200.38;5022691;28;20040;-38
2023/06/29 05:32:33;;;;;;;6.95;2.60;;;17.90;99.90;;;18.57;90.49;97204.19;5024598;28;20150;-40
2023/06/29 05:34:58;;;;;;;4.22;2.72;;;18.20;99.90;;;19.27;83.87;97208.00;5030452;28;20029;-39
2023/06/29 05:37:24;;;;;;;3.83;2.60;;;18.60;99.90;;;19.58;80.93;97209.22;5027013;28;20038;-38
2023/06/29 05:39:50;;;;;;;6.07;2.67;;;18.90;99.90;;;19.57;81.39;97199.47;5029495;28;20582;-38
2023/06/29 05:42:16;;;;;;;6.20;3.28;;;19.10;99.90;;;19.39;76.44;97200.88;5027863;28;20116;-38
2023/06/29 05:44:41;;;;;;;5.00;2.70;;;19.10;99.90;;;19.28;79.91;97199.03;5029015;28;20052;-38
2023/06/29 05:47:07;;;;;;;4.80;2.92;;;19.10;99.90;;;19.18;80.74;97209.53;5028859;28;20156;-38
2023/06/29 05:49:33;;;;;;;4.15;2.60;;;19.10;99.90;;;19.14;81.65;97201.88;5031180;28;20111;-38
2023/06/29 05:51:59;;;;;;;7.70;2.88;;;19.10;99.90;;;19.00;80.01;97186.88;5010022;28;20086;-38
2023/06/29 05:54:24;;;;;;;4.80;2.72;;;19.10;99.90;;;19.11;78.97;97194.94;5027071;28;20029;-39
2023/06/29 05:56:50;;;;;;;5.63;3.17;;;19.20;99.90;;;19.17;77.80;97197.16;5031212;28;20049;-38
2023/06/29 05:59:16;;;;;;;4.07;2.50;;;19.20;99.90;;;19.23;77.57;97193.16;5035745;28;20020;-38
2023/06/29 06:01:41;;;;;;;4.15;2.50;;;19.30;99.90;;;19.22;76.34;97183.44;5029020;28;20045;-39
2023/06/29 06:04:07;;;;;;;3.95;2.42;;;19.40;99.90;;;19.38;75.58;97194.69;5029189;28;20275;-38
2023/06/29 06:06:33;;;;;;;3.42;2.10;;;19.40;99.90;;;19.52;75.46;97200.81;5030683;28;20029;-38
2023/06/29 06:08:59;;;;;;;5.03;2.90;;;19.60;99.90;;;19.62;74.59;97204.50;5015848;28;20024;-37
2023/06/29 06:11:24;;;;;;;6.55;3.05;;;19.70;99.90;;;19.72;71.50;97199.25;5024992;28;20336;-37
2023/06/29 06:13:50;;;;;;;4.30;2.67;;;19.80;99.90;;;19.82;72.51;97192.28;5025397;28;20159;-37
2023/06/29 06:16:16;;;;;;;6.05;2.70;;;19.90;99.90;;;19.97;71.34;97196.44;5027511;28;20036;-38
2023/06/29 06:18:42;;;;;;;4.13;2.50;;;20.00;99.90;;;20.14;70.29;97196.94;5027389;28;20048;-38
2023/06/29 06:21:07;;;;;;;5.35;2.40;;;20.20;99.90;;;20.24;68.37;97187.16;5029910;28;20036;-38
2023/06/29 06:23:33;;;;;;;5.78;2.88;;;20.30;99.60;;;20.53;67.44;97197.38;5025251;28;20095;-38
2023/06/29 06:25:59;;;;;;;6.15;2.55;;;20.50;99.40;;;20.73;64.45;97193.97;5028349;28;20047;-38
2023/06/29 06:28:25;;;;;;;4.57;2.60;;;20.70;98.40;;;20.93;65.18;97191.50;5029772;28;20038;-40
2023/06/29 06:30:51;;;;;;;5.32;2.50;;;20.90;98.30;;;21.15;63.63;97187.88;5024914;28;20037;-38
2023/06/29 06:33:16;;;;;;;6.28;2.70;;;21.10;98.10;;;21.33;61.76;97199.75;5029566;28;20139;-36
2023/06/29 06:35:43;;;;;;;6.63;3.30;;;21.30;97.50;;;21.48;60.00;97204.84;5025320;28;20439;-37
2023/06/29 06:38:09;;;;;;;6.32;3.00;;;21.50;96.70;;;21.61;58.18;97193.94;5024301;28;20614;-37
2023/06/29 06:40:35;;;;;;;5.43;3.13;;;21.60;96.00;;;21.70;56.25;97196.66;5025559;28;20040;-37
2023/06/29 06:43:00;;;;;;;5.25;2.92;;;21.70;95.50;;;21.81;56.65;97195.75;5025679;28;20063;-37
2023/06/29 06:45:26;;;;;;;5.25;3.00;;;21.70;95.40;;;21.88;58.50;97194.25;5025159;28;20349;-37
2023/06/29 06:47:52;;;;;;;5.95;3.00;;;21.80;95.60;;;22.03;56.35;97191.22;5031234;28;20029;-37
2023/06/29 06:50:17;;;;;;;5.43;3.03;;;22.00;95.30;;;22.19;55.47;97188.88;5026036;28;20045;-37
2023/06/29 06:52:43;;;;;;;6.40;2.85;;;22.00;94.60;;;22.36;54.15;97191.94;5029197;28;20498;-37
2023/06/29 06:55:09;;;;;;;5.07;2.88;;;22.20;94.00;;;22.51;53.46;97187.06;5025193;28;20095;-37
2023/06/29 06:57:35;;;;;;;7.60;3.35;;;22.30;93.90;;;22.63;52.05;97185.94;5006453;28;20045;-37
2023/06/29 07:00:00;;;;;;;5.53;2.88;;;22.40;93.10;;;22.64;53.21;97168.84;5024330;28;20025;-37
2023/06/29 07:02:26;;;;;;;7.15;2.58;;;22.50;93.50;;;22.84;52.37;97191.25;5019618;28;20117;-36
2023/06/29 07:04:52;;;;;;;5.72;2.70;;;22.60;93.00;;;22.97;51.90;97188.28;5017691;28;20501;-38
2023/06/29 07:07:17;;;;;;;4.28;2.55;;;22.80;92.80;;;23.04;51.32;97181.34;5018690;28;20268;-39
2023/06/29 07:09:43;;;;;;;7.07;3.22;;;22.90;92.40;;;23.17;50.65;97173.91;5026217;28;20044;-37
2023/06/29 07:12:09;;;;;;;4.82;2.80;;;23.00;92.10;;;23.29;49.58;97173.75;5021784;28;20068;-37
2023/06/29 07:14:37;;;;;;;4.75;3.00;;;23.20;91.50;;;23.46;50.51;97177.59;5019958;28;20124;-37
2023/06/29 07:17:03;;;;;;;6.28;3.40;;;23.30;91.60;;;23.64;49.99;97182.09;5021994;28;20083;-37
2023/06/29 07:19:29;;;;;;;5.28;3.05;;;23.50;91.60;;;23.92;49.46;97173.28;5023680;28;20467;-37
2023/06/29 07:21:55;;;;;;;8.18;3.50;;;23.80;91.50;;;24.20;47.30;97171.50;5024465;28;20060;-37
2023/06/29 07:24:21;;;;;;;8.23;3.08;;;24.10;90.10;;;24.38;47.41;97169.69;5020884;28;20033;-39
2023/06/29 07:26:47;;;;;;;6.22;3.80;;;24.20;89.70;;;24.50;47.12;97177.63;5015225;28;20025;-37
2023/06/29 07:29:12;;;;;;;7.78;3.20;;;24.40;89.00;;;24.64;47.61;97162.78;5021181;28;20243;-37
2023/06/29 07:31:39;;;;;;;7.38;3.13;;;24.50;89.10;;;24.71;47.17;97174.69;5022024;28;20163;-38
2023/06/29 07:34:05;;;;;;;5.55;3.63;;;24.60;88.90;;;24.50;46.99;97167.69;5000910;28;20056;-38
2023/06/29 07:36:31;;;;;;;8.38;3.25;;;24.50;87.80;;;24.39;47.50;97168.72;5021338;28;20025;-38
2023/06/29 07:38:56;;;;;;;8.68;2.90;;;24.30;88.90;;;24.28;47.52;97176.13;5045396;23;20044;-37
2023/06/29 07:41:22;;;;;;;3.10;2.67;;;24.10;88.20;;;24.17;48.18;97163.69;5031663;28;20033;-37
2023/06/29 07:43:54;;;;;;;9.70;3.20;;;24.10;89.40;;;24.23;47.19;97173.91;5032618;28;20116;-37
2023/06/29 07:46:20;;;;;;;6.80;3.53;;;24.10;87.70;;;24.21;47.32;97148.97;5026337;28;20783;-37
2023/06/29 07:48:50;;;;;;;9.05;3.00;;;24.20;88.70;;;24.32;47.86;97159.53;5033558;28;20072;-37
2023/06/29 07:51:16;;;;;;;5.07;2.97;;;24.20;88.00;;;24.36;48.44;97160.09;5032270;28;20132;-37
2023/06/29 07:53:43;;;;;;;4.40;2.85;;;24.30;87.70;;;24.32;46.62;97148.75;5030251;28;20094;-38
2023/06/29 07:56:09;;;;;;;4.97;3.40;;;24.30;86.80;;;24.50;46.02;97150.66;5029655;28;20137;-37
2023/06/29 07:58:35;;;;;;;6.55;3.05;;;24.40;85.90;;;24.66;45.95;97168.91;5027384;28;20025;-38
2023/06/29 08:01:01;;;;;;;4.70;2.75;;;24.50;85.40;;;24.77;45.29;97164.16;5023937;28;20387;-37
2023/06/29 08:03:27;;;;;;;4.70;2.67;;;24.70;84.20;;;24.99;44.60;97161.16;5030317;28;20483;-37
2023/06/29 08:05:53;;;;;;;9.13;3.33;;;24.80;83.50;;;25.09;44.95;97156.56;5026400;28;20024;-37
2023/06/29 08:08:20;;;;;;;5.65;3.60;;;25.00;84.20;;;24.98;44.75;97154.94;5031904;28;20056;-37
2023/06/29 08:10:48;;;;;;;4.65;2.67;;;25.00;82.90;;;25.06;44.51;97154.16;5033883;28;20029;-37
2023/06/29 08:13:14;;;;;;;4.13;2.70;;;24.90;82.70;;;25.10;45.23;97150.97;5029495;28;20097;-37
2023/06/29 08:15:40;;;;;;;6.85;2.80;;;25.00;83.40;;;25.08;44.20;97149.47;5033821;28;20522;-37
2023/06/29 08:18:05;;;;;;;4.97;2.92;;;25.00;82.80;;;25.24;44.24;97154.16;5035310;28;20032;-37
2023/06/29 08:20:31;;;;;;;6.13;2.95;;;25.20;82.00;;;25.47;44.14;97150.00;5032354;28;20391;-38
2023/06/29 08:22:57;;;;;;;4.70;2.83;;;25.40;81.70;;;25.63;43.14;97154.69;5035805;28;20586;-37
2023/06/29 08:25:22;;;;;;;4.78;2.70;;;25.60;80.50;;;25.91;41.70;97154.53;5033355;28;21748;-37
2023/06/29 08:27:49;;;;;;;3.42;2.42;;;25.90;78.60;;;26.03;39.93;97152.44;5035454;28;20025;-37
2023/06/29 08:30:16;;;;;;;4.05;2.60;;;26.00;75.60;;;26.13;40.09;97149.63;5036310;28;20041;-37
2023/06/29 08:32:43;;;;;;;5.90;2.78;;;26.00;75.30;;;26.15;39.88;97153.00;5035409;28;20033;-37
2023/06/29 08:35:09;;;;;;;5.05;2.58;;;26.00;74.70;;;26.10;40.04;97153.50;5034510;28;20029;-37
2023/06/29 08:37:35;;;;;;;4.03;2.40;;;26.00;74.70;;;25.95;41.53;97149.69;5035789;28;20044;-37
2023/06/29 08:40:01;;;;;;;3.88;2.50;;;25.90;75.40;;;25.90;41.11;97153.69;5021182;28;20025;-37
2023/06/29 08:42:27;;;;;;;2.95;2.15;;;25.80;75.30;;;25.86;39.91;97136.13;5030472;28;20079;-37
2023/06/29 08:44:53;;;;;;;3.33;2.15;;;25.80;73.70;;;25.88;40.47;97136.78;5032399;28;20048;-38
2023/06/29 08:47:19;;;;;;;5.45;2.20;;;25.80;74.60;;;25.80;40.27;97141.28;5046552;28;20033;-37
2023/06/29 08:49:46;;;;;;;5.68;2.47;;;25.80;73.70;;;25.86;40.20;97130.72;5028648;28;20708;-38
2023/06/29 08:52:16;;;;;;;2.60;2.00;;;25.70;74.30;;;26.10;40.57;97137.28;5031740;28;20110;-37
2023/06/29 08:54:44;;;;;;;4.10;2.35;;;25.90;75.00;;;26.33;39.94;97131.34;5034074;28;20053;-37
2023/06/29 08:57:10;;;;;;;3.15;2.22;;;26.20;74.30;;;26.57;38.70;97130.56;5030242;28;20402;-40
2023/06/29 08:59:40;;;;;;;6.60;2.08;;;26.40;72.20;;;26.60;39.09;97114.84;5035288;28;20028;-37
2023/06/29 09:02:06;;;;;;;3.67;1.98;;;26.50;71.90;;;26.72;38.75;97112.75;5027612;28;20061;-38
2023/06/29 09:04:32;;;;;;;4.15;2.25;;;26.70;70.90;;;26.90;37.70;97125.25;5031283;28;20049;-37
2023/06/29 09:06:58;;;;;;;5.38;2.28;;;26.90;70.40;;;27.12;38.20;97123.78;5033437;28;20041;-37
2023/06/29 09:09:24;;;;;;;4.22;2.20;;;27.10;70.50;;;27.18;37.86;97109.56;5034835;28;20511;-39
2023/06/29 09:11:50;;;;;;;3.67;2.30;;;27.30;70.50;;;27.41;36.80;97118.75;5032929;28;20724;-38
2023/06/29 09:14:16;;;;;;;3.55;2.33;;;27.50;68.40;;;27.56;36.88;97118.06;5033004;28;20523;-38
2023/06/29 09:17:12;;;;;;;3.95;2.40;;;27.50;68.20;;;27.62;36.29;97128.22;5031729;28;20096;-37
2023/06/29 09:19:38;;;;;;;4.65;2.00;;;27.50;66.60;;;27.63;36.29;97120.94;5030842;28;20057;-38
2023/06/29 09:22:04;;;;;;;4.13;2.42;;;27.60;67.10;;;27.81;36.38;97122.41;5030101;28;20033;-39
2023/06/29 09:24:30;;;;;;;6.00;1.88;;;27.80;67.40;;;27.96;36.32;97119.91;5028863;28;20871;-38
2023/06/29 09:26:55;;;;;;;4.22;2.35;;;27.90;66.10;;;28.06;36.47;97122.41;5034444;28;20450;-38
2023/06/29 09:29:23;;;;;;;4.40;2.30;;;27.90;67.70;;;28.15;37.03;97120.50;5027233;28;20032;-38
2023/06/29 09:31:56;;;;;;;5.15;2.30;;;28.00;67.00;;;28.14;36.17;97118.84;5023892;28;20375;-38
2023/06/29 09:34:27;;;;;;;2.92;2.10;;;28.00;66.30;;;28.11;35.51;97111.03;5023731;28;20518;-38
2023/06/29 09:36:54;;;;;;;3.60;1.95;;;28.10;65.90;;;28.10;34.65;97125.59;5031690;28;20036;-37
2023/06/29 09:39:20;;;;;;;4.15;2.28;;;28.10;64.00;;;28.09;35.55;97132.06;5033836;28;20052;-38
2023/06/29 09:41:56;;;;;;;2.65;2.08;;;28.10;64.20;;;28.27;35.20;97126.41;5031799;28;20058;-38
2023/06/29 09:44:25;;;;;;;4.00;2.25;;;28.20;63.70;;;28.31;35.47;97123.16;5028847;28;20040;-38
2023/06/29 09:47:09;;;;;;;5.45;1.80;;;28.30;64.70;;;28.35;34.56;97124.53;5024560;28;20027;-39
2023/06/29 09:49:47;;;;;;;5.72;2.10;;;28.30;63.00;;;28.35;33.77;97119.09;5032837;28;20067;-38
2023/06/29 09:52:15;;;;;;;3.15;1.75;;;28.30;61.90;;;28.31;35.05;97120.44;5032373;28;20099;-37
2023/06/29 09:54:42;;;;;;;4.15;1.88;;;28.30;62.20;;;28.52;34.36;97111.72;5029991;28;20042;-37
2023/06/29 09:57:13;;;;;;;2.97;2.00;;;28.50;62.40;;;28.56;33.89;97112.25;5023044;28;20376;-37
2023/06/29 09:59:40;;;;;;;2.92;2.30;;;28.60;60.80;;;28.47;33.98;97113.28;5029235;28;20176;-37
2023/06/29 10:02:10;;;;;;;3.03;2.13;;;28.60;60.20;;;28.51;34.10;97111.91;5022099;28;20733;-37
2023/06/29 10:04:42;;;;;;;3.55;1.88;;;28.60;60.90;;;28.72;32.90;97114.88;5034472;28;20466;-38
2023/06/29 10:07:14;;;;;;;2.50;1.90;;;28.70;59.80;;;28.79;33.18;97103.31;5029924;28;20060;-37
2023/06/29 10:09:42;;;;;;;;;;;28.70;59.70;;;28.78;33.47;97105.16;5033728;28;20060;-36
2023/06/29 10:12:10;;;;;;;2.28;1.83;;;28.70;60.00;;;28.93;33.67;97113.41;5030401;28;20292;-36
2023/06/29 10:14:42;;;;;;;2.65;1.90;;;28.80;60.30;;;28.80;33.22;97096.84;5030146;28;20047;-36